Time;durP1;ratioP1;P1;durP2;ratioP2;P2;SDS_P1;SDS_P2;PMS_P1;PMS_P2;Temp;Humidity;BMP_temperature;BMP_pressure;BME280_temperature;BME280_humidity;BME280_pressure;Samples;Min_cycle;Max_cycle;Signal;HPM_P1;HPM_P2
2021/05/07 00:01:11;;;;;;;14.43;13.07;;;13.10;96.30;;;14.33;46.93;100354.88;4892554;28;98220;-58
2021/05/07 00:03:38;;;;;;;13.57;12.17;;;13.20;95.60;;;14.40;46.63;100359.75;4879764;28;98632;-56
2021/05/07 00:06:08;;;;;;;14.07;12.70;;;13.40;95.10;;;14.48;46.66;100360.22;4876959;28;97424;-54
2021/05/07 00:08:37;;;;;;;15.53;14.07;;;13.50;94.30;;;14.55;46.20;100358.91;4894977;28;100803;-59
2021/05/07 00:11:06;;;;;;;15.10;13.63;;;13.60;94.20;;;14.62;46.33;100361.25;4873937;28;97528;-56
2021/05/07 00:13:34;;;;;;;14.13;12.93;;;13.70;94.00;;;14.57;46.26;100354.38;4894734;28;98121;-57
2021/05/07 00:15:59;;;;;;;14.83;13.43;;;13.60;94.20;;;14.58;46.10;100355.22;4875749;28;96886;-57
2021/05/07 00:18:26;;;;;;;14.43;13.00;;;13.60;94.00;;;14.60;46.10;100358.66;4885962;28;102448;-58
2021/05/07 00:20:52;;;;;;;14.47;13.17;;;13.60;93.70;;;14.61;46.33;100364.81;4897143;28;97655;-59
2021/05/07 00:23:19;;;;;;;14.77;13.37;;;13.60;93.50;;;14.60;46.10;100363.94;4872888;28;99180;-57
2021/05/07 00:25:46;;;;;;;15.60;14.03;;;13.70;93.60;;;14.63;45.79;100362.94;4876080;28;98923;-57
2021/05/07 00:28:14;;;;;;;13.87;12.67;;;13.80;93.30;;;14.70;45.62;100366.94;4872052;28;99247;-54
2021/05/07 00:30:40;;;;;;;14.03;12.50;;;14.00;92.20;;;14.77;45.54;100370.97;4864653;28;98312;-58
2021/05/07 00:33:09;;;;;;;13.77;12.57;;;14.10;92.10;;;14.81;45.67;100372.50;4878519;28;103509;-57
2021/05/07 00:35:35;;;;;;;14.33;12.93;;;14.10;92.00;;;14.82;45.33;100376.88;4896489;28;97164;-59
2021/05/07 00:38:03;;;;;;;9.03;8.23;;;14.10;92.40;;;14.84;45.62;100372.31;4873822;28;99628;-59
2021/05/07 00:40:29;;;;;;;10.67;9.67;;;14.00;92.30;;;14.82;45.54;100369.75;4894204;28;99470;-56
2021/05/07 00:42:55;;;;;;;14.17;12.77;;;14.00;92.90;;;14.80;45.62;100370.78;4892266;28;98356;-58
2021/05/07 00:45:22;;;;;;;9.33;8.47;;;13.90;93.00;;;14.82;45.39;100379.53;4888701;28;98439;-58
2021/05/07 00:48:06;;;;;;;9.77;8.90;;;14.00;92.70;;;14.84;45.18;100375.84;4879493;28;99389;-58
2021/05/07 00:50:34;;;;;;;6.00;5.40;;;14.00;92.60;;;14.82;45.29;100385.69;4889857;28;103051;-57
2021/05/07 00:53:01;;;;;;;11.53;10.43;;;13.90;92.90;;;14.85;45.59;100374.88;4878395;28;98594;-57
2021/05/07 00:55:28;;;;;;;13.73;12.53;;;14.00;92.90;;;14.87;45.36;100382.75;4871207;28;98055;-57
2021/05/07 00:57:55;;;;;;;14.33;12.93;;;14.00;92.80;;;14.90;45.31;100382.59;4895700;28;98233;-58
2021/05/07 01:00:23;;;;;;;11.40;10.43;;;14.00;92.40;;;14.91;45.18;100389.63;4886340;28;101203;-55
2021/05/07 01:02:50;;;;;;;8.70;8.00;;;14.00;92.60;;;14.90;45.23;100382.59;4891239;28;98355;-58
2021/05/07 01:05:17;;;;;;;3.30;3.03;;;14.00;92.80;;;14.89;45.34;100388.84;4881938;28;101941;-59
2021/05/07 01:07:43;;;;;;;4.37;4.07;;;13.90;92.80;;;14.88;45.47;100379.16;4859730;28;97750;-57
2021/05/07 01:10:12;;;;;;;14.00;12.80;;;13.90;93.10;;;14.88;45.31;100387.97;4870645;28;101200;-57
2021/05/07 01:12:40;;;;;;;11.73;10.73;;;13.90;93.10;;;14.90;45.38;100387.91;4879674;28;97360;-57
2021/05/07 01:15:09;;;;;;;5.60;5.00;;;13.90;92.90;;;14.91;45.07;100386.97;4882272;28;99606;-58
2021/05/07 01:17:42;;;;;;;13.87;12.47;;;13.90;92.50;;;14.89;45.13;100388.84;4890470;28;99133;-58
2021/05/07 01:20:22;;;;;;;12.73;11.70;;;13.90;93.20;;;14.87;45.41;100388.06;4879298;28;98622;-57
2021/05/07 01:22:54;;;;;;;15.30;13.97;;;13.90;93.10;;;14.86;45.32;100387.22;4877456;28;97821;-57
2021/05/07 01:25:24;;;;;;;15.43;14.13;;;13.90;93.10;;;14.86;45.22;100391.66;4887333;28;97970;-57
2021/05/07 01:27:57;;;;;;;16.33;14.83;;;13.90;93.00;;;14.86;45.47;100391.66;4861606;28;98325;-57
2021/05/07 01:30:33;;;;;;;6.97;6.37;;;13.90;93.00;;;14.85;45.55;100397.94;4856612;28;99968;-58
2021/05/07 01:32:59;;;;;;;3.50;2.60;;;13.90;92.90;;;14.82;45.61;100395.47;4878603;28;97276;-57
2021/05/07 01:35:35;;;;;;;7.93;7.23;;;13.80;93.30;;;14.81;45.74;100393.75;4886772;28;97843;-56
2021/05/07 01:38:04;;;;;;;9.73;8.90;;;13.70;93.10;;;14.77;45.80;100386.91;4878396;28;99386;-59
2021/05/07 01:40:33;;;;;;;8.73;8.03;;;13.60;93.90;;;14.75;45.65;100394.06;4869963;28;99351;-54
2021/05/07 01:43:00;;;;;;;5.13;4.70;;;13.60;93.80;;;14.72;45.88;100394.25;4895161;28;101473;-58
2021/05/07 01:45:30;;;;;;;16.97;15.50;;;13.60;94.00;;;14.73;45.68;100393.31;4873950;28;97291;-57
2021/05/07 01:47:57;;;;;;;5.23;4.83;;;13.60;94.40;;;14.75;45.66;100388.78;4878849;28;97761;-59
2021/05/07 01:50:27;;;;;;;17.00;15.43;;;13.70;94.00;;;14.75;45.77;100399.38;4891813;28;100995;-59
2021/05/07 01:52:57;;;;;;;16.93;15.43;;;13.70;94.30;;;14.75;45.91;100392.28;4880539;28;99341;-58
2021/05/07 01:55:30;;;;;;;18.43;16.73;;;13.70;94.00;;;14.77;45.65;100397.53;4890225;28;97428;-57
2021/05/07 01:57:58;;;;;;;18.97;17.10;;;13.70;94.00;;;14.78;45.78;100404.56;4892238;28;105497;-56
2021/05/07 02:00:27;;;;;;;18.23;16.53;;;13.80;93.70;;;14.82;45.68;100406.94;4896596;28;100609;-58
2021/05/07 02:02:55;;;;;;;17.80;16.20;;;13.90;93.00;;;14.87;45.35;100404.00;4888244;28;98728;-57
2021/05/07 02:05:23;;;;;;;18.37;16.67;;;14.00;92.60;;;14.94;45.08;100416.00;4877122;28;98747;-57
2021/05/07 02:07:50;;;;;;;18.53;16.83;;;14.20;91.90;;;15.00;45.03;100410.31;4893107;28;97064;-57
2021/05/07 02:10:20;;;;;;;18.37;16.67;;;14.30;91.40;;;15.05;45.00;100410.94;4910544;28;96911;-56
2021/05/07 02:12:49;;;;;;;18.30;16.70;;;14.50;91.00;;;15.07;44.73;100422.31;4892314;28;96849;-59
2021/05/07 02:15:18;;;;;;;17.77;15.93;;;14.50;90.70;;;15.05;44.83;100416.25;4898197;28;97151;-57
2021/05/07 02:17:44;;;;;;;17.33;15.77;;;14.40;91.40;;;15.03;44.99;100410.13;4877403;28;97028;-58
2021/05/07 02:20:13;;;;;;;19.47;17.60;;;14.30;91.50;;;15.00;44.75;100415.63;4889480;28;98518;-56
2021/05/07 02:22:41;;;;;;;18.60;16.87;;;14.20;91.20;;;15.01;44.76;100413.84;4895047;28;96922;-58
2021/05/07 02:25:08;;;;;;;17.70;16.13;;;14.30;91.20;;;15.01;44.91;100417.34;4906784;28;97728;-59
2021/05/07 02:27:34;;;;;;;19.00;17.10;;;14.30;91.20;;;15.03;44.79;100423.41;4895724;28;97224;-58
2021/05/07 02:30:00;;;;;;;19.90;18.03;;;14.40;91.10;;;15.02;44.98;100424.38;4908944;28;97474;-58
2021/05/07 02:32:26;;;;;;;18.80;17.00;;;14.30;90.90;;;15.02;44.97;100423.50;4871851;28;103548;-57
2021/05/07 02:34:53;;;;;;;19.23;17.33;;;14.30;91.00;;;15.01;44.90;100425.31;4884012;28;97549;-57
2021/05/07 02:37:19;;;;;;;18.10;16.43;;;14.30;91.20;;;15.00;44.98;100431.56;4897590;28;97213;-54
2021/05/07 02:39:44;;;;;;;17.60;15.83;;;14.30;91.30;;;15.02;44.81;100434.13;4911820;28;97366;-56
2021/05/07 02:42:10;;;;;;;19.40;17.57;;;14.30;91.40;;;15.03;44.71;100436.69;4897302;28;97168;-58
2021/05/07 02:44:36;;;;;;;18.37;16.67;;;14.40;91.20;;;15.06;44.81;100438.34;4895787;28;99894;-56
2021/05/07 02:47:05;;;;;;;15.77;14.33;;;14.40;91.20;;;15.06;44.95;100436.56;4872804;28;97395;-61
2021/05/07 02:49:35;;;;;;;3.43;3.13;;;14.40;91.00;;;15.04;44.71;100441.06;4891889;28;101966;-54
2021/05/07 02:52:03;;;;;;;18.20;16.50;;;14.30;91.30;;;15.01;44.97;100433.28;4908346;28;97134;-61
2021/05/07 02:54:32;;;;;;;4.90;4.23;;;14.20;91.80;;;15.03;44.68;100434.03;4910664;28;97379;-58
2021/05/07 02:57:00;;;;;;;1.93;1.70;;;14.20;91.30;;;15.02;44.98;100439.44;4912226;28;100602;-58
2021/05/07 02:59:26;;;;;;;8.20;7.33;;;14.20;91.60;;;15.01;44.97;100438.59;4888956;28;103073;-56
2021/05/07 03:01:53;;;;;;;14.07;12.63;;;14.20;91.60;;;15.06;44.76;100443.66;4902162;28;99163;-57
2021/05/07 03:04:19;;;;;;;18.80;16.90;;;14.30;91.50;;;15.09;44.80;100441.69;4887696;28;97141;-56
2021/05/07 03:06:50;;;;;;;3.77;3.47;;;14.40;90.80;;;15.13;44.86;100447.66;4914344;28;97112;-58
2021/05/07 03:09:17;;;;;;;5.20;4.70;;;14.40;91.10;;;15.10;44.78;100451.38;4886885;28;99236;-58
2021/05/07 03:11:43;;;;;;;2.30;2.10;;;14.30;90.70;;;15.10;44.92;100455.81;4898514;28;98923;-57
2021/05/07 03:14:10;;;;;;;18.47;16.67;;;14.30;91.00;;;15.10;44.67;100448.72;4893222;28;98490;-57
2021/05/07 03:16:36;;;;;;;14.40;13.07;;;14.30;90.90;;;15.11;44.94;100450.41;4882284;28;97029;-59
2021/05/07 03:19:03;;;;;;;15.53;14.13;;;14.40;91.00;;;15.15;44.86;100457.25;4912242;28;99353;-62
2021/05/07 03:21:29;;;;;;;18.23;16.53;;;14.50;90.90;;;15.20;44.46;100453.50;4876252;28;100263;-56
2021/05/07 03:23:55;;;;;;;4.17;3.83;;;14.60;90.40;;;15.22;44.62;100462.22;4898234;28;98160;-57
2021/05/07 03:26:21;;;;;;;10.80;9.80;;;14.60;90.60;;;15.22;44.62;100473.72;4908128;28;97191;-55
2021/05/07 03:28:47;;;;;;;1.80;1.70;;;14.50;89.90;;;15.21;44.48;100468.50;4916459;28;101358;-53
2021/05/07 03:31:12;;;;;;;3.33;2.00;;;14.50;90.60;;;15.22;44.51;100478.19;4907442;28;98827;-58
2021/05/07 03:33:38;;;;;;;12.13;11.03;;;14.50;90.90;;;15.24;44.65;100481.59;4899153;28;97528;-55
2021/05/07 03:36:05;;;;;;;1.70;1.60;;;14.50;90.10;;;15.26;44.61;100485.88;4873979;28;102025;-57
2021/05/07 03:38:32;;;;;;;3.17;2.87;;;14.50;90.70;;;15.29;44.57;100490.16;4909977;28;97656;-58
2021/05/07 03:40:58;;;;;;;5.33;4.83;;;14.60;90.30;;;15.23;44.61;100494.03;4886477;28;97225;-58
2021/05/07 03:43:24;;;;;;;2.47;2.27;;;14.40;90.70;;;15.20;44.77;100498.66;4892386;28;97320;-58
2021/05/07 03:45:50;;;;;;;4.90;4.50;;;14.30;91.50;;;15.21;44.74;100500.38;4879028;28;96926;-58
2021/05/07 03:48:19;;;;;;;2.50;2.30;;;14.40;91.10;;;15.20;44.75;100498.66;4910894;28;117290;-53
2021/05/07 03:50:50;;;;;;;4.13;3.80;;;14.40;91.00;;;15.17;44.71;100497.00;4889612;28;98293;-58
2021/05/07 03:53:17;;;;;;;3.50;2.70;;;14.30;90.50;;;15.14;44.69;100506.03;4909094;28;97335;-56
2021/05/07 03:55:44;;;;;;;10.07;9.17;;;14.30;91.00;;;15.13;44.82;100506.09;4918435;28;97254;-58
2021/05/07 03:58:11;;;;;;;2.50;2.30;;;14.30;90.30;;;15.10;44.91;100499.19;4908674;28;97305;-56
2021/05/07 04:00:37;;;;;;;2.37;2.07;;;14.20;90.90;;;15.09;44.78;100505.44;4898517;28;98047;-57
2021/05/07 04:03:04;;;;;;;4.40;3.80;;;14.20;90.90;;;15.06;44.78;100500.31;4887872;28;102074;-59
2021/05/07 04:05:31;;;;;;;5.17;4.70;;;14.10;91.10;;;15.04;44.66;100512.78;4899130;28;97212;-57
2021/05/07 04:10:48;;;;;;;2.60;2.40;;;14.00;90.90;;;14.94;45.15;100524.88;4907163;28;101131;-59
2021/05/07 04:15:58;;;;;;;2.40;2.17;;;13.90;91.70;;;14.92;44.92;100529.44;4897078;28;97070;-57
2021/05/07 04:18:24;;;;;;;2.40;2.20;;;14.10;91.80;;;14.98;44.86;100523.78;4886041;28;99166;-54
2021/05/07 04:20:51;;;;;;;2.40;2.20;;;14.30;91.20;;;15.01;44.96;100528.91;4889250;28;97194;-57
2021/05/07 04:23:17;;;;;;;11.53;10.33;;;14.30;90.80;;;15.06;44.62;100534.84;4890433;28;101404;-57
2021/05/07 04:25:43;;;;;;;6.13;5.63;;;14.40;89.60;;;15.06;44.75;100536.63;4893943;28;97188;-56
2021/05/07 04:28:09;;;;;;;3.13;2.83;;;14.30;90.00;;;15.06;44.84;100547.25;4888629;28;100718;-58
2021/05/07 04:30:35;;;;;;;9.90;9.00;;;14.30;90.30;;;15.04;44.85;100543.81;4889457;28;100745;-53
2021/05/07 04:33:01;;;;;;;9.47;8.60;;;14.20;89.30;;;14.99;44.83;100544.06;4886023;28;98598;-54
2021/05/07 04:35:26;;;;;;;8.13;7.43;;;14.10;91.00;;;14.99;44.88;100564.47;4871842;28;103667;-55
2021/05/07 04:37:53;;;;;;;2.63;2.43;;;14.10;90.20;;;14.97;44.86;100558.38;4909596;28;98127;-59
2021/05/07 04:40:19;;;;;;;5.53;5.03;;;14.10;91.10;;;14.95;44.87;100563.78;4893852;28;97384;-59
2021/05/07 04:42:44;;;;;;;4.00;3.70;;;14.10;90.60;;;14.94;44.91;100558.56;4902057;28;98354;-58
2021/05/07 04:45:11;;;;;;;10.03;8.77;;;14.00;91.00;;;14.93;44.93;100563.00;4894097;28;98360;-56
2021/05/07 04:47:37;;;;;;;20.37;18.30;;;14.00;90.90;;;14.88;45.18;100559.72;4891983;28;97494;-56
2021/05/07 04:50:05;;;;;;;9.43;8.53;;;13.90;91.10;;;14.85;45.24;100554.59;4872163;28;97963;-61
2021/05/07 04:52:31;;;;;;;5.33;4.77;;;13.80;91.50;;;14.84;45.38;100552.88;4893955;28;97527;-58
2021/05/07 04:54:58;;;;;;;12.03;10.83;;;13.90;91.80;;;14.80;45.14;100564.63;4894269;28;97805;-57
2021/05/07 04:57:29;;;;;;;24.97;22.47;;;13.80;91.40;;;14.77;45.27;100572.78;4877699;28;97604;-55
2021/05/07 04:59:56;;;;;;;7.07;6.40;;;13.70;92.40;;;14.78;45.43;100574.47;4907742;28;97706;-59
2021/05/07 05:02:22;;;;;;;26.17;23.30;;;13.80;92.50;;;14.81;45.14;100564.53;4889019;28;98971;-56
2021/05/07 05:04:48;;;;;;;4.50;4.07;;;13.90;92.20;;;14.81;45.29;100569.00;4892965;28;98525;-58
2021/05/07 05:07:14;;;;;;;28.47;25.47;;;13.80;92.50;;;14.77;45.35;100572.78;4891631;28;97510;-57
2021/05/07 05:09:40;;;;;;;27.83;24.97;;;13.70;92.60;;;14.74;45.80;100578.22;4894482;28;100031;-58
2021/05/07 05:12:06;;;;;;;28.93;26.03;;;13.70;92.60;;;14.69;45.91;100577.63;4890696;28;97384;-54
2021/05/07 05:14:33;;;;;;;29.30;26.20;;;13.60;93.50;;;14.55;46.13;100584.53;4890112;28;97277;-56
2021/05/07 05:16:58;;;;;;;19.03;17.13;;;13.50;93.40;;;14.56;46.19;100575.63;4913976;28;98369;-57
2021/05/07 05:19:24;;;;;;;31.33;28.03;;;13.50;93.50;;;14.49;46.40;100579.56;4886027;28;97428;-56
2021/05/07 05:21:50;;;;;;;28.60;25.40;;;13.40;93.80;;;14.45;46.32;100577.97;4877652;28;97491;-57
2021/05/07 05:24:16;;;;;;;19.43;17.50;;;13.40;93.30;;;14.44;46.57;100581.56;4889025;28;96845;-55
2021/05/07 05:26:42;;;;;;;24.17;20.83;;;13.40;93.10;;;14.47;46.40;100592.06;4910406;28;99960;-55
2021/05/07 05:29:11;;;;;;;27.80;24.90;;;13.50;93.40;;;14.53;46.06;100602.31;4891133;28;101199;-57
2021/05/07 05:31:37;;;;;;;27.63;24.73;;;13.70;93.20;;;14.63;46.11;100604.50;4873849;28;98273;-54
2021/05/07 05:34:03;;;;;;;27.97;25.03;;;13.90;92.40;;;14.71;45.70;100594.31;4909617;28;96977;-61
2021/05/07 05:36:29;;;;;;;7.30;6.60;;;14.00;92.00;;;14.75;45.68;100601.16;4877928;28;100589;-57
2021/05/07 05:38:55;;;;;;;26.87;24.17;;;13.90;92.40;;;14.78;45.84;100606.34;4909751;28;96998;-54
2021/05/07 05:41:21;;;;;;;7.17;6.47;;;13.90;92.70;;;14.75;45.88;100602.03;4886802;28;99114;-58
2021/05/07 05:43:48;;;;;;;27.90;25.13;;;13.80;92.90;;;14.64;46.17;100614.19;4882839;28;97639;-58
2021/05/07 05:46:17;;;;;;;30.63;26.20;;;13.60;93.80;;;14.72;46.08;100627.88;4904404;28;98010;-57
2021/05/07 05:48:43;;;;;;;29.20;26.20;;;13.80;93.00;;;14.80;45.73;100625.69;4912789;28;97645;-57
2021/05/07 05:51:09;;;;;;;21.87;16.93;;;14.00;92.10;;;14.76;45.73;100629.47;4890291;28;97136;-57
2021/05/07 05:53:35;;;;;;;27.73;21.87;;;13.90;92.30;;;14.85;45.60;100621.00;4892693;28;109603;-58
2021/05/07 05:56:00;;;;;;;29.33;26.17;;;14.20;91.30;;;14.82;45.43;100623.81;4894819;28;97634;-57
2021/05/07 05:58:30;;;;;;;30.90;27.60;;;14.10;91.40;;;14.79;45.67;100624.84;4907311;28;98126;-57
2021/05/07 06:00:57;;;;;;;26.33;22.77;;;14.10;91.50;;;14.81;45.47;100619.44;4880623;28;97153;-56
2021/05/07 06:03:23;;;;;;;28.77;25.83;;;14.10;91.40;;;14.81;45.68;100622.97;4875770;28;97282;-58
2021/05/07 06:05:49;;;;;;;21.67;19.47;;;14.00;92.00;;;14.86;45.47;100628.00;4885963;28;97906;-56
2021/05/07 06:08:15;;;;;;;24.77;21.83;;;14.10;91.60;;;14.88;45.57;100634.09;4911397;28;97305;-57
2021/05/07 06:10:40;;;;;;;30.97;26.47;;;14.10;92.10;;;14.90;45.18;100626.94;4882674;28;100505;-57
2021/05/07 06:13:06;;;;;;;28.67;25.57;;;14.10;91.70;;;14.88;45.47;100634.09;4889287;28;98347;-57
2021/05/07 06:15:32;;;;;;;29.73;26.60;;;14.00;91.90;;;14.91;45.45;100639.25;4893657;28;98978;-58
2021/05/07 06:17:58;;;;;;;30.00;26.80;;;14.10;91.80;;;14.84;45.42;100645.84;4896385;28;105777;-58
2021/05/07 06:20:24;;;;;;;32.43;28.70;;;14.00;92.00;;;14.71;46.75;100650.06;4910036;28;97337;-56
2021/05/07 06:22:50;;;;;;;32.80;28.50;;;13.90;93.00;;;14.58;46.74;100644.53;4910902;28;97128;-57
2021/05/07 06:25:19;;;;;;;32.20;28.80;;;13.70;93.80;;;14.47;47.04;100647.78;4890764;28;97736;-55
2021/05/07 06:27:46;;;;;;;32.00;28.50;;;13.60;94.50;;;14.40;47.25;100643.69;4894888;28;97319;-57
2021/05/07 06:30:14;;;;;;;29.80;24.27;;;13.50;94.40;;;14.23;47.66;100643.69;4910703;28;97251;-57
2021/05/07 06:32:40;;;;;;;21.67;19.10;;;13.50;93.90;;;14.42;46.89;100641.81;4896448;28;97095;-57
2021/05/07 06:35:08;;;;;;;21.93;19.03;;;13.80;92.70;;;14.31;46.83;100638.84;4875384;28;97463;-55
2021/05/07 06:37:34;;;;;;;20.70;18.53;;;13.70;92.70;;;14.25;47.33;100644.47;4893852;28;97611;-57
2021/05/07 06:40:00;;;;;;;19.90;17.83;;;13.60;93.20;;;14.34;46.86;100638.69;4891884;28;97038;-57
2021/05/07 06:42:27;;;;;;;10.57;9.50;;;13.50;94.10;;;14.32;47.32;100648.53;4896996;28;97979;-55
2021/05/07 06:44:53;;;;;;;17.37;15.57;;;13.40;94.20;;;14.28;47.04;100654.91;4911534;28;98122;-57
2021/05/07 06:47:19;;;;;;;13.37;11.43;;;13.30;95.00;;;14.21;47.43;100649.06;4912965;28;127588;-57
2021/05/07 06:49:44;;;;;;;7.43;6.60;;;13.10;94.60;;;14.17;47.47;100651.94;4897254;28;97311;-57
2021/05/07 06:52:10;;;;;;;13.97;12.57;;;13.00;95.10;;;14.12;47.78;100659.28;4898807;28;97317;-56
2021/05/07 06:54:37;;;;;;;13.83;12.43;;;12.90;95.50;;;14.07;47.74;100648.06;4896938;28;97439;-57
2021/05/07 06:57:03;;;;;;;14.87;13.37;;;12.90;95.70;;;14.07;47.77;100656.88;4903938;28;99742;-61
2021/05/07 06:59:30;;;;;;;12.77;11.47;;;13.00;95.30;;;14.26;47.33;100652.34;4878364;28;98915;-57
2021/05/07 07:01:59;;;;;;;14.40;12.97;;;13.30;94.60;;;14.18;47.28;100657.19;4917269;28;97187;-57
2021/05/07 07:04:25;;;;;;;14.70;13.03;;;13.30;93.40;;;14.26;47.10;100662.09;4893135;28;100053;-57
2021/05/07 07:06:50;;;;;;;13.83;12.53;;;13.20;94.20;;;14.26;47.33;100662.09;4912563;28;107638;-54
2021/05/07 07:09:17;;;;;;;10.97;9.87;;;13.30;94.00;;;14.28;47.20;100661.09;4892435;28;97589;-55
2021/05/07 07:11:43;;;;;;;16.53;14.83;;;13.30;94.70;;;14.29;46.99;100656.63;4881847;28;101782;-57
2021/05/07 07:14:09;;;;;;;14.70;13.27;;;13.20;94.40;;;14.23;47.08;100663.13;4882111;28;97588;-54
2021/05/07 07:16:35;;;;;;;14.30;12.80;;;13.20;94.20;;;14.19;47.14;100655.41;4896148;28;97714;-56
2021/05/07 07:19:01;;;;;;;14.83;13.43;;;13.10;94.40;;;13.81;47.14;100659.94;4882490;28;97598;-56
2021/05/07 07:21:27;;;;;;;9.87;7.87;;;12.80;94.30;;;13.87;47.81;100665.78;4887812;28;97701;-58
2021/05/07 07:23:53;;;;;;;13.40;12.00;;;12.70;94.70;;;13.80;48.32;100660.88;4910486;28;98597;-59
2021/05/07 07:26:19;;;;;;;13.37;11.97;;;12.70;95.20;;;13.76;48.56;100662.84;4905236;28;104967;-55
2021/05/07 07:28:49;;;;;;;12.53;11.20;;;12.60;94.90;;;13.86;48.18;100669.38;4889935;28;97242;-55
2021/05/07 07:31:16;;;;;;;10.80;9.77;;;12.70;95.40;;;13.91;47.67;100662.09;4887849;28;97644;-57
2021/05/07 07:33:42;;;;;;;14.20;12.80;;;12.80;95.40;;;13.96;47.81;100670.66;4910205;28;98792;-56
2021/05/07 07:36:08;;;;;;;11.60;10.53;;;12.90;96.00;;;13.92;48.17;100676.19;4888326;28;98569;-59
2021/05/07 07:38:34;;;;;;;12.30;11.10;;;12.80;95.40;;;13.95;48.13;100679.56;4908302;28;97312;-57
2021/05/07 07:41:00;;;;;;;15.07;13.47;;;12.90;95.80;;;13.88;47.97;100683.41;4894426;28;97046;-54
2021/05/07 07:43:26;;;;;;;9.07;7.53;;;12.80;95.00;;;14.06;47.84;100683.47;4892307;28;97984;-58
2021/05/07 07:45:52;;;;;;;16.73;14.47;;;13.10;94.80;;;14.10;47.89;100682.38;4906915;28;99706;-57
2021/05/07 07:48:18;;;;;;;17.43;14.87;;;13.20;94.80;;;14.14;47.67;100683.94;4878212;28;97273;-59
2021/05/07 07:50:44;;;;;;;16.73;15.00;;;13.40;94.30;;;14.22;47.40;100692.38;4898073;28;98331;-58
2021/05/07 07:53:10;;;;;;;18.20;16.03;;;13.50;93.90;;;14.39;46.99;100710.97;4910135;28;100866;-57
2021/05/07 07:55:36;;;;;;;19.10;17.20;;;13.80;92.90;;;14.22;47.27;100718.91;4896144;28;97430;-58
2021/05/07 07:58:02;;;;;;;5.60;4.87;;;13.80;92.80;;;14.39;46.67;100726.88;4896800;28;97390;-58
2021/05/07 08:00:29;;;;;;;7.03;6.33;;;13.90;92.40;;;14.15;45.51;100744.00;4893031;28;100603;-58
2021/05/07 08:02:55;;;;;;;9.23;7.93;;;13.70;91.10;;;14.00;46.83;100761.53;4896484;28;97948;-56
2021/05/07 08:05:21;;;;;;;9.80;8.90;;;13.40;92.60;;;13.95;46.81;100774.16;4884855;28;99882;-56
2021/05/07 08:07:47;;;;;;;9.57;7.80;;;13.40;92.80;;;14.03;45.68;100787.03;4894326;28;96936;-58
2021/05/07 08:10:16;;;;;;;6.67;5.40;;;13.60;91.70;;;14.00;47.94;100783.59;4887740;28;97182;-58
2021/05/07 08:12:42;;;;;;;4.10;3.20;;;13.30;93.10;;;14.25;47.14;100793.91;4893625;28;98979;-58
2021/05/07 08:15:09;;;;;;;2.40;2.20;;;13.60;92.90;;;14.45;46.88;100795.59;4903537;28;100091;-58
2021/05/07 08:17:35;;;;;;;2.33;2.10;;;14.00;92.50;;;14.73;46.05;100796.88;4893514;28;98521;-57
2021/05/07 08:20:03;;;;;;;8.00;7.17;;;14.40;91.30;;;14.54;43.86;100818.19;4896628;28;99324;-57
2021/05/07 08:22:30;;;;;;;4.53;3.70;;;14.30;89.70;;;14.61;46.06;100822.28;4898139;28;105497;-58
2021/05/07 08:24:56;;;;;;;8.03;7.17;;;14.10;91.40;;;14.09;44.61;100834.50;4895740;28;99345;-57
2021/05/07 08:27:21;;;;;;;7.13;6.53;;;13.60;90.20;;;13.69;48.03;100837.22;4888831;28;109177;-57
2021/05/07 08:29:48;;;;;;;6.47;5.87;;;12.90;93.50;;;13.05;49.80;100839.19;4893944;28;97030;-57
2021/05/07 08:32:14;;;;;;;2.27;2.07;;;12.10;94.90;;;13.08;50.07;100844.34;4874253;28;100682;-58
2021/05/07 08:34:42;;;;;;;5.20;4.70;;;12.00;96.20;;;12.55;48.47;100850.06;4894584;28;97273;-58
2021/05/07 08:37:12;;;;;;;5.27;4.83;;;11.70;94.50;;;12.33;50.22;100849.22;4876729;28;97069;-54
2021/05/07 08:39:38;;;;;;;6.30;5.70;;;11.40;96.00;;;12.16;51.78;100853.41;4894687;28;97378;-56
2021/05/07 08:42:11;;;;;;;3.20;2.90;;;11.30;97.40;;;12.36;52.29;100864.97;4890942;28;98243;-59
2021/05/07 08:44:37;;;;;;;2.20;2.00;;;11.40;98.00;;;12.33;52.33;100859.81;4895774;28;97488;-56
2021/05/07 08:47:03;;;;;;;1.60;1.50;;;11.30;98.40;;;12.71;51.34;100861.75;4872587;28;97453;-61
2021/05/07 08:49:30;;;;;;;6.53;5.93;;;11.80;97.20;;;12.32;51.97;100871.31;4875658;28;97527;-58
2021/05/07 08:51:57;;;;;;;3.73;3.43;;;11.60;97.10;;;12.45;52.28;100873.41;4893808;28;101053;-56
2021/05/07 08:54:25;;;;;;;2.00;1.33;;;11.50;97.70;;;13.32;49.98;100869.81;4892235;28;97126;-56
2021/05/07 08:56:50;;;;;;;7.00;6.23;;;12.70;95.80;;;13.26;49.72;100888.59;4890309;28;97527;-57
2021/05/07 08:59:16;;;;;;;1.37;1.27;;;12.80;94.60;;;13.88;48.50;100900.00;4890471;28;97034;-53
2021/05/07 09:01:45;;;;;;;9.30;8.30;;;13.60;94.20;;;13.72;49.45;100899.81;4894579;28;98205;-59
2021/05/07 09:04:17;;;;;;;9.23;8.43;;;13.40;94.60;;;13.83;48.19;100908.16;4886154;28;96959;-57
2021/05/07 09:06:52;;;;;;;9.80;8.77;;;13.50;93.60;;;13.73;48.26;100917.44;4904983;28;97811;-56
2021/05/07 09:09:27;;;;;;;8.80;8.10;;;13.20;93.60;;;13.60;49.50;100913.66;4873908;28;97353;-57
2021/05/07 09:11:56;;;;;;;10.27;9.27;;;12.90;95.20;;;13.18;49.51;100924.28;4874471;28;98953;-56
2021/05/07 09:14:23;;;;;;;9.63;8.73;;;12.50;95.40;;;12.91;51.27;100939.50;4899069;28;99281;-57
2021/05/07 09:17:00;;;;;;;7.93;7.23;;;12.20;96.50;;;12.77;51.26;100948.88;4893142;28;97344;-56
2021/05/07 09:19:31;;;;;;;9.23;8.43;;;12.00;96.50;;;12.41;51.94;100947.66;4910219;28;97487;-57
2021/05/07 09:21:58;;;;;;;9.30;8.47;;;11.80;97.10;;;12.39;52.01;100954.78;4884476;28;96774;-56
2021/05/07 09:24:38;;;;;;;9.23;8.37;;;11.80;96.50;;;12.44;53.35;100951.06;4884066;28;97711;-54
2021/05/07 09:27:06;;;;;;;7.77;6.97;;;11.80;98.10;;;12.64;51.86;100960.88;4892162;28;97347;-58
2021/05/07 09:29:33;;;;;;;8.53;7.73;;;12.00;97.60;;;12.40;52.37;100972.38;4892602;28;99396;-56
2021/05/07 09:32:03;;;;;;;5.40;4.90;;;12.00;97.00;;;12.43;52.12;100978.41;4890535;28;99551;-57
2021/05/07 09:34:36;;;;;;;5.33;4.90;;;11.90;97.00;;;12.61;52.45;100987.44;4888486;28;101154;-56
2021/05/07 09:37:22;;;;;;;7.07;5.57;;;12.00;97.30;;;12.65;53.29;100994.34;4889516;28;96954;-57
2021/05/07 09:39:51;;;;;;;5.33;4.90;;;12.10;98.10;;;12.56;52.58;100997.34;4878167;28;98153;-57
2021/05/07 09:42:24;;;;;;;5.33;4.83;;;12.10;97.00;;;12.61;51.04;100992.75;4888609;28;97920;-57
2021/05/07 09:44:50;;;;;;;4.53;4.13;;;12.10;96.30;;;12.67;51.92;100997.78;4892905;28;97068;-56
2021/05/07 09:47:17;;;;;;;5.17;4.10;;;12.20;97.10;;;12.67;49.62;101004.88;4874693;28;120526;-57
2021/05/07 09:49:42;;;;;;;4.93;4.43;;;12.20;94.90;;;12.65;50.64;101014.66;4908047;28;97205;-56
2021/05/07 09:52:08;;;;;;;4.63;4.23;;;12.20;95.40;;;12.40;49.67;101026.16;4885321;28;105027;-56
2021/05/07 09:54:38;;;;;;;5.63;4.80;;;12.00;94.60;;;12.48;50.58;101037.34;4887895;28;99094;-58
2021/05/07 09:57:05;;;;;;;5.93;4.03;;;12.10;95.00;;;12.61;51.42;101032.44;4875693;28;97375;-60
2021/05/07 09:59:31;;;;;;;6.80;6.00;;;12.20;96.00;;;12.60;50.58;101040.44;4897676;28;98574;-57
2021/05/07 10:01:57;;;;;;;6.53;5.93;;;12.20;95.40;;;12.59;50.88;101051.97;4908918;28;97256;-56
2021/05/07 10:04:23;;;;;;;6.93;6.17;;;12.20;95.60;;;12.57;51.96;101054.63;4888388;28;97221;-56
2021/05/07 10:06:49;;;;;;;7.07;6.37;;;12.10;96.20;;;12.55;50.44;101051.19;4892058;28;97017;-56
2021/05/07 10:09:26;;;;;;;7.87;7.17;;;12.20;94.90;;;12.73;49.84;101049.63;4880143;28;97493;-56
2021/05/07 10:11:54;;;;;;;9.60;8.70;;;12.30;94.80;;;12.69;50.90;101056.81;4889422;28;98377;-57